createdAt,value
2023-04-06T11:03:06.217Z,5.50
2023-04-06T11:05:33.202Z,5.15
2023-04-06T11:07:59.809Z,6.65
2023-04-06T11:10:26.882Z,6.38
2023-04-06T11:12:56.382Z,6.43
2023-04-06T11:15:23.133Z,5.80
2023-04-06T11:17:50.340Z,4.68
2023-04-06T11:20:17.078Z,5.57
2023-04-06T11:22:51.237Z,5.53
2023-04-06T11:25:18.287Z,4.32
2023-04-06T11:27:45.731Z,4.75
2023-04-06T11:30:12.782Z,5.68
2023-04-06T11:32:46.187Z,10.70
2023-04-06T11:35:23.190Z,6.32
2023-04-06T11:37:52.669Z,4.57
2023-04-06T11:40:23.778Z,4.78
2023-04-06T11:42:54.847Z,6.95
2023-04-06T11:45:21.615Z,7.13
2023-04-06T11:48:00.565Z,5.85
2023-04-06T11:50:33.559Z,6.50
2023-04-06T11:53:09.772Z,5.50
2023-04-06T11:55:40.121Z,5.65
2023-04-06T11:58:08.027Z,5.65
2023-04-06T12:00:35.956Z,4.82
2023-04-06T12:03:02.904Z,5.65
2023-04-06T12:05:29.707Z,7.25
2023-04-06T12:07:57.001Z,4.43
2023-04-06T12:10:24.832Z,5.57
2023-04-06T12:12:51.455Z,4.68
2023-04-06T12:15:18.085Z,5.32
2023-04-06T12:17:44.880Z,5.82
2023-04-06T12:20:22.526Z,5.63
2023-04-06T12:22:52.282Z,5.70
2023-04-06T12:25:19.031Z,5.13
2023-04-06T12:27:46.268Z,6.40
2023-04-06T12:30:13.439Z,6.93
2023-04-06T12:32:40.807Z,6.13
2023-04-06T12:35:09.796Z,6.28
2023-04-06T12:37:37.890Z,5.78
2023-04-06T12:40:05.586Z,5.88
2023-04-06T12:42:32.261Z,7.97
2023-04-06T12:44:58.966Z,6.45
2023-04-06T12:47:27.419Z,6.88
2023-04-06T12:49:55.146Z,8.57
2023-04-06T12:52:22.188Z,6.65
2023-04-06T12:54:50.149Z,6.90
2023-04-06T12:57:18.077Z,6.07
2023-04-06T12:59:46.176Z,6.80
2023-04-06T13:02:13.040Z,6.55
2023-04-06T13:04:39.844Z,6.32
2023-04-06T13:07:06.702Z,6.65
2023-04-06T13:09:33.324Z,7.50
2023-04-06T13:11:59.921Z,9.50
2023-04-06T13:14:26.674Z,7.85
2023-04-06T13:16:53.384Z,7.00
2023-04-06T13:19:20.110Z,7.60
2023-04-06T13:21:46.786Z,4.78
2023-04-06T13:24:15.575Z,5.93
2023-04-06T13:26:43.108Z,7.40
2023-04-06T13:29:09.726Z,6.57
2023-04-06T13:31:36.534Z,6.05
2023-04-06T13:34:03.319Z,5.45
2023-04-06T13:36:30.112Z,7.35
2023-04-06T13:38:56.827Z,6.10
2023-04-06T13:41:24.832Z,5.05
2023-04-06T13:43:51.722Z,6.25
2023-04-06T13:46:18.476Z,5.75
2023-04-06T13:48:45.513Z,5.28
2023-04-06T13:51:12.699Z,6.50
2023-04-06T13:53:41.214Z,5.88
2023-04-06T13:56:08.847Z,6.05
2023-04-06T13:58:37.158Z,5.53
2023-04-06T14:01:08.213Z,6.13
2023-04-06T14:03:35.406Z,5.55
2023-04-06T14:06:09.434Z,5.55
2023-04-06T14:08:42.759Z,5.80
2023-04-06T14:11:13.185Z,7.45
2023-04-06T14:13:40.556Z,5.80
2023-04-06T14:16:08.004Z,6.40
2023-04-06T14:18:35.206Z,5.43
2023-04-06T14:21:02.080Z,5.22
2023-04-06T14:23:29.320Z,5.88
2023-04-06T14:26:06.415Z,6.40
2023-04-06T14:28:36.850Z,6.20
2023-04-06T14:31:10.046Z,6.30
2023-04-06T14:33:36.948Z,5.88
2023-04-06T14:36:04.836Z,5.05
2023-04-06T14:38:32.777Z,6.22
2023-04-06T14:40:59.550Z,7.07
2023-04-06T14:43:27.082Z,5.05
2023-04-06T14:45:53.922Z,5.30
2023-04-06T14:48:20.579Z,4.25
2023-04-06T14:50:56.730Z,6.85
2023-04-06T14:53:27.179Z,6.13
2023-04-06T14:55:53.873Z,6.97
2023-04-06T14:58:20.953Z,5.07
2023-04-06T15:00:47.666Z,5.93
2023-04-06T15:03:14.876Z,5.13
2023-04-06T15:05:41.720Z,5.38
2023-04-06T15:08:10.299Z,6.50
2023-04-06T15:10:37.237Z,6.15
2023-04-06T15:13:04.097Z,5.50
2023-04-06T15:15:31.143Z,5.75
2023-04-06T15:17:57.858Z,5.05
2023-04-06T15:20:24.622Z,6.20
2023-04-06T15:22:51.280Z,5.82
2023-04-06T15:25:18.294Z,5.15
2023-04-06T15:27:44.977Z,8.85
2023-04-06T15:30:11.767Z,6.15
2023-04-06T15:32:38.613Z,7.50
2023-04-06T15:35:11.856Z,6.78
2023-04-06T15:37:39.210Z,4.90
2023-04-06T15:40:06.530Z,7.30
2023-04-06T15:42:33.195Z,5.78
2023-04-06T15:44:59.888Z,5.57
2023-04-06T15:47:26.625Z,5.50
2023-04-06T15:49:53.717Z,6.80
2023-04-06T15:52:20.576Z,6.32
2023-04-06T15:54:47.688Z,7.50
2023-04-06T15:57:14.893Z,6.15
2023-04-06T15:59:41.567Z,6.45
2023-04-06T16:02:08.311Z,4.32
2023-04-06T16:04:35.026Z,7.10
2023-04-06T16:07:01.861Z,5.53
2023-04-06T16:09:28.640Z,6.18
2023-04-06T16:11:55.972Z,6.18
2023-04-06T16:14:22.613Z,6.55
2023-04-06T16:16:50.871Z,6.25
2023-04-06T16:19:17.747Z,6.85
2023-04-06T16:21:44.769Z,5.85
2023-04-06T16:24:12.410Z,6.25
2023-04-06T16:26:40.081Z,6.25
2023-04-06T16:29:07.212Z,6.57
2023-04-06T16:31:34.013Z,6.30
2023-04-06T16:34:01.071Z,5.75
2023-04-06T16:36:29.020Z,6.13
2023-04-06T16:38:56.192Z,5.82
2023-04-06T16:41:23.036Z,7.55
2023-04-06T16:43:49.692Z,5.65
2023-04-06T16:46:17.269Z,6.03
2023-04-06T16:48:44.182Z,5.90
2023-04-06T16:51:10.865Z,6.35
2023-04-06T16:53:38.338Z,7.32
2023-04-06T16:58:41.254Z,7.43
2023-04-06T17:01:07.886Z,10.35
2023-04-06T17:03:35.387Z,9.60
2023-04-06T17:06:02.139Z,9.75
2023-04-06T17:08:28.868Z,7.47
2023-04-06T17:10:59.495Z,7.55
2023-04-06T17:13:29.501Z,6.55
2023-04-06T17:15:56.156Z,8.88
2023-04-06T17:18:22.787Z,8.80
2023-04-06T17:20:49.534Z,6.82
2023-04-06T17:23:16.680Z,7.70
2023-04-06T17:25:43.434Z,9.32
2023-04-06T17:28:10.141Z,7.00
2023-04-06T17:30:36.794Z,7.95
2023-04-06T17:33:03.460Z,8.45
2023-04-06T17:35:30.191Z,7.93
2023-04-06T17:37:56.818Z,7.03
2023-04-06T17:40:23.420Z,7.97
2023-04-06T17:42:50.084Z,8.07
2023-04-06T17:45:17.064Z,7.75
2023-04-06T17:47:43.893Z,11.30
2023-04-06T17:50:11.802Z,8.73
2023-04-06T17:52:38.548Z,8.07
2023-04-06T17:55:05.971Z,8.57
2023-04-06T17:57:32.673Z,7.80
2023-04-06T17:59:59.263Z,10.43
2023-04-06T18:02:26.623Z,11.80
2023-04-06T18:04:53.825Z,8.32
2023-04-06T18:07:20.781Z,10.65
2023-04-06T18:09:47.479Z,10.25
2023-04-06T18:12:14.144Z,7.38
2023-04-06T18:14:41.625Z,7.63
2023-04-06T18:17:08.356Z,10.10
2023-04-06T18:19:34.988Z,7.57
2023-04-06T18:22:01.630Z,8.27
2023-04-06T18:24:41.595Z,9.50
2023-04-06T18:27:10.431Z,10.18
2023-04-06T18:29:37.237Z,8.05
2023-04-06T18:32:04.986Z,9.70
2023-04-06T18:34:31.587Z,9.98
2023-04-06T18:36:59.957Z,9.20
2023-04-06T18:39:27.480Z,11.80
2023-04-06T18:41:54.167Z,10.85
2023-04-06T18:44:21.190Z,8.85
2023-04-06T18:46:47.874Z,10.52
2023-04-06T18:49:14.571Z,12.73
2023-04-06T18:51:42.954Z,10.45
2023-04-06T18:54:09.638Z,9.18
2023-04-06T18:56:38.408Z,9.32
2023-04-06T18:59:05.069Z,10.57
2023-04-06T19:01:32.505Z,10.18
2023-04-06T19:03:59.847Z,10.15
2023-04-06T19:06:27.491Z,8.15
2023-04-06T19:08:54.441Z,12.70
2023-04-06T19:11:23.313Z,12.63
2023-04-06T19:13:50.385Z,13.60
2023-04-06T19:16:17.427Z,11.43
2023-04-06T19:18:45.537Z,13.32
2023-04-06T19:21:19.457Z,10.75
2023-04-06T19:23:46.782Z,10.88
2023-04-06T19:26:13.868Z,9.75
2023-04-06T19:28:40.587Z,10.93
2023-04-06T19:31:08.685Z,13.18
2023-04-06T19:33:36.026Z,9.50
2023-04-06T19:36:02.828Z,10.20
2023-04-06T19:38:30.204Z,11.85
2023-04-06T19:40:56.922Z,12.40
2023-04-06T19:43:23.610Z,11.75
2023-04-06T19:45:51.325Z,13.43
2023-04-06T19:48:18.071Z,12.13
2023-04-06T19:50:44.986Z,12.70
2023-04-06T19:53:11.785Z,11.55
2023-04-06T19:55:38.648Z,10.88
2023-04-06T19:58:08.267Z,10.48
2023-04-06T20:00:35.027Z,10.13
2023-04-06T20:03:01.831Z,9.32
2023-04-06T20:05:28.520Z,10.43
2023-04-06T20:07:55.198Z,10.75
2023-04-06T20:10:21.940Z,9.93
2023-04-06T20:12:50.511Z,11.07
2023-04-06T20:15:17.104Z,9.43
2023-04-06T20:17:43.914Z,9.60
2023-04-06T20:20:11.412Z,10.65
2023-04-06T20:22:38.117Z,9.65
2023-04-06T20:25:05.494Z,9.63
2023-04-06T20:27:32.227Z,11.65
2023-04-06T20:29:58.890Z,10.35
2023-04-06T20:32:25.704Z,9.60
2023-04-06T20:34:53.539Z,10.05
2023-04-06T20:37:21.437Z,9.80
2023-04-06T20:39:48.414Z,9.20
2023-04-06T20:42:15.079Z,8.68
2023-04-06T20:44:41.710Z,12.45
2023-04-06T20:47:08.407Z,8.90
2023-04-06T20:49:35.364Z,10.02
2023-04-06T20:52:02.449Z,9.18
2023-04-06T20:54:29.693Z,9.23
2023-04-06T20:57:00.483Z,9.85
2023-04-06T20:59:27.747Z,11.27
2023-04-06T21:01:54.399Z,9.30
2023-04-06T21:04:22.797Z,10.07
2023-04-06T21:09:16.397Z,7.68
2023-04-06T21:11:43.131Z,8.77
2023-04-06T21:14:09.792Z,11.52
2023-04-06T21:16:37.605Z,9.98
2023-04-06T21:19:05.360Z,11.00
2023-04-06T21:21:32.136Z,8.23
2023-04-06T21:23:59.437Z,11.15
2023-04-06T21:26:26.058Z,10.40
2023-04-06T21:28:52.682Z,10.10
2023-04-06T21:31:21.416Z,11.25
2023-04-06T21:33:48.815Z,13.73
2023-04-06T21:36:15.451Z,11.52
2023-04-06T21:38:42.134Z,13.00
2023-04-06T21:41:08.830Z,11.32
2023-04-06T21:43:35.987Z,10.73
2023-04-06T21:46:02.917Z,11.70
2023-04-06T21:48:29.531Z,10.63
2023-04-06T21:50:56.168Z,11.57
2023-04-06T21:53:22.772Z,12.43
2023-04-06T21:55:49.372Z,11.85
2023-04-06T21:58:16.052Z,12.20
2023-04-06T22:00:42.631Z,11.73
2023-04-06T22:03:09.411Z,14.10
2023-04-06T22:05:37.218Z,12.77
2023-04-06T22:08:03.957Z,14.48
2023-04-06T22:10:30.827Z,16.80
2023-04-06T22:12:57.545Z,16.40
2023-04-06T22:15:24.143Z,17.98
2023-04-06T22:17:50.871Z,15.90
2023-04-06T22:20:17.554Z,18.52
2023-04-06T22:22:44.331Z,19.08
2023-04-06T22:25:10.913Z,17.35
2023-04-06T22:27:37.559Z,18.70
2023-04-06T22:30:07.284Z,19.65
2023-04-06T22:32:34.098Z,16.77
2023-04-06T22:35:01.023Z,15.25
2023-04-06T22:37:27.678Z,17.48
2023-04-06T22:39:54.961Z,17.33
2023-04-06T22:42:21.643Z,16.23
2023-04-06T22:44:48.254Z,15.70
2023-04-06T22:47:14.850Z,14.93
2023-04-06T22:49:41.492Z,15.57
2023-04-06T22:52:08.119Z,16.27
2023-04-06T22:54:34.794Z,16.88
2023-04-06T22:57:02.952Z,19.50
2023-04-06T22:59:29.693Z,14.35
2023-04-06T23:01:57.007Z,16.58
2023-04-06T23:04:23.856Z,16.67
2023-04-06T23:06:51.003Z,14.35
2023-04-06T23:09:17.691Z,16.55
2023-04-06T23:11:44.290Z,15.18
2023-04-06T23:14:10.921Z,16.25
2023-04-06T23:16:37.526Z,14.95
2023-04-06T23:19:04.270Z,15.23
2023-04-06T23:21:32.714Z,16.55
2023-04-06T23:24:00.195Z,15.38
2023-04-06T23:26:27.181Z,18.40
2023-04-06T23:28:53.796Z,15.07
2023-04-06T23:31:20.512Z,14.70
2023-04-06T23:33:47.281Z,16.45
2023-04-06T23:36:13.874Z,16.75
2023-04-06T23:38:40.543Z,15.40
2023-04-06T23:41:07.128Z,13.80
2023-04-06T23:43:33.738Z,16.17
2023-04-06T23:46:00.803Z,15.95
2023-04-06T23:48:27.566Z,14.95
2023-04-06T23:50:54.240Z,14.55
2023-04-06T23:53:21.356Z,12.73
2023-04-06T23:55:48.070Z,16.20
2023-04-06T23:58:14.689Z,14.40
